Time;durP1;ratioP1;P1;durP2;ratioP2;P2;SDS_P1;SDS_P2;PMS_P1;PMS_P2;Temp;Humidity;BMP_temperature;BMP_pressure;BME280_temperature;BME280_humidity;BME280_pressure;Samples;Min_cycle;Max_cycle;Signal;HPM_P1;HPM_P2
2023/03/08 17:21:37;;;;;;;15.60;8.60;;;;;;;10.89;48.91;99932.07;104603;1280;600380;-82
2023/03/08 17:24:10;;;;;;;12.60;6.90;;;;;;;10.85;49.18;99936.30;107457;1247;58865;-80
2023/03/08 17:26:46;;;;;;;15.80;7.70;;;;;;;10.81;49.07;99932.92;107257;1252;61822;-79
2023/03/08 17:29:15;;;;;;;11.50;7.40;;;;;;;10.73;49.66;99928.75;107156;1252;71064;-84
2023/03/08 17:31:44;;;;;;;11.40;6.40;;;;;;;10.67;49.02;99934.02;107027;1252;62246;-80
2023/03/08 17:34:14;;;;;;;15.80;8.50;;;;;;;10.59;49.65;99944.41;104399;1252;3367174;-82
2023/03/08 17:36:45;;;;;;;15.40;8.30;;;;;;;10.52;49.81;99950.77;107098;1249;63083;-79
2023/03/08 17:39:15;;;;;;;15.20;8.20;;;;;;;10.48;51.40;99954.89;107292;1244;57331;-80
2023/03/08 17:41:45;;;;;;;19.30;9.60;;;;;;;10.39;51.88;99948.36;107323;1245;58229;-80
2023/03/08 17:44:14;;;;;;;15.00;8.60;;;;;;;10.25;51.61;99952.27;107357;1244;71056;-80
2023/03/08 17:46:43;;;;;;;16.80;10.10;;;;;;;10.14;52.29;99967.07;107351;1245;72524;-78
2023/03/08 17:49:12;;;;;;;12.90;8.10;;;;;;;10.02;52.24;99969.31;107290;1251;69996;-78
2023/03/08 17:51:41;;;;;;;14.50;8.40;;;;;;;9.89;52.34;99971.58;107514;1245;62690;-80
2023/03/08 17:54:10;;;;;;;17.50;8.00;;;;;;;9.81;53.08;99976.08;107552;1245;57564;-80
2023/03/08 17:56:39;;;;;;;13.20;7.40;;;;;;;9.72;53.45;99982.88;107638;1245;59111;-80
2023/03/08 17:59:16;;;;;;;12.30;8.20;;;;;;;9.62;53.96;99987.89;107488;1246;61394;-79
2023/03/08 18:01:45;;;;;;;17.30;8.60;;;;;;;9.45;54.44;99984.66;107549;1246;73182;-83
2023/03/08 18:04:14;;;;;;;15.50;8.80;;;;;;;9.36;54.48;99991.65;107626;1245;72077;-79
2023/03/08 18:06:44;;;;;;;16.90;8.60;;;;;;;9.24;54.13;99994.30;107532;1255;73637;-80
2023/03/08 18:09:15;;;;;;;18.90;8.80;;;;;;;9.16;53.85;99993.02;107605;1245;59113;-81
2023/03/08 18:11:47;;;;;;;17.20;9.60;;;;;;;9.06;56.63;99980.83;107275;1251;57539;-78
2023/03/08 18:14:18;;;;;;;27.10;10.70;;;;;;;9.08;57.05;99988.67;107485;1248;70721;-81
2023/03/08 18:16:56;;;;;;;24.00;10.90;;;;;;;9.01;56.03;99985.52;107538;1245;71840;-79
2023/03/08 18:19:25;;;;;;;18.50;10.30;;;;;;;8.92;57.79;99985.04;107368;1248;60338;-80
2023/03/08 18:21:56;;;;;;;19.70;10.40;;;;;;;8.82;58.09;99983.67;107350;1248;63221;-80
2023/03/08 18:24:26;;;;;;;21.70;11.10;;;;;;;8.72;58.53;99984.25;107362;1244;59838;-80
2023/03/08 18:26:56;;;;;;;26.00;12.30;;;;;;;8.61;59.35;99986.48;107548;1246;59043;-81
2023/03/08 18:29:25;;;;;;;51.60;28.20;;;;;;;8.50;59.52;99981.11;107478;1245;72679;-81
2023/03/08 18:31:54;;;;;;;31.00;17.50;;;;;;;8.38;60.42;99975.73;107339;1252;72714;-81
2023/03/08 18:34:23;;;;;;;35.00;18.40;;;;;;;8.27;60.96;99978.61;107561;1245;59770;-79
2023/03/08 18:36:57;;;;;;;28.30;17.50;;;;;;;8.18;61.49;99982.21;107491;1247;63225;-81
2023/03/08 18:39:26;;;;;;;32.80;19.10;;;;;;;8.08;61.67;99986.08;107438;1247;59170;-80
2023/03/08 18:41:56;;;;;;;30.80;16.80;;;;;;;7.99;63.56;99987.95;107607;1245;60155;-83
2023/03/08 18:44:25;;;;;;;31.30;17.10;;;;;;;7.90;63.52;99989.98;107551;1245;61891;-81
2023/03/08 18:46:54;;;;;;;29.50;16.40;;;;;;;7.82;62.93;99996.85;107587;1245;72298;-82
2023/03/08 18:49:23;;;;;;;27.30;16.50;;;;;;;7.77;63.98;99994.95;107523;1245;60705;-82
2023/03/08 18:51:52;;;;;;;21.80;12.90;;;;;;;7.71;63.65;99996.74;107263;1248;63136;-80
2023/03/08 18:54:21;;;;;;;28.70;15.10;;;;;;;7.62;64.50;99992.85;107812;1245;59122;-78
2023/03/08 18:56:52;;;;;;;25.00;13.70;;;;;;;7.55;65.22;99987.65;107681;1244;57395;-78
2023/03/08 18:59:21;;;;;;;31.90;16.30;;;;;;;7.50;65.34;99982.64;107539;1248;62137;-82
2023/03/08 19:01:51;;;;;;;33.90;17.90;;;;;;;7.43;65.57;99980.02;107825;1248;72069;-82
2023/03/08 19:04:21;;;;;;;37.60;17.50;;;;;;;7.34;65.75;99976.87;108020;1244;70953;-81
2023/03/08 19:06:50;;;;;;;33.60;18.20;;;;;;;7.24;66.37;99977.91;107790;1256;73902;-81
2023/03/08 19:09:20;;;;;;;28.20;19.00;;;;;;;7.15;66.68;99976.99;107513;1245;59064;-79
2023/03/08 19:11:49;;;;;;;30.40;17.90;;;;;;;7.05;66.89;99970.61;107371;1255;58929;-78
2023/03/08 19:14:18;;;;;;;28.40;16.50;;;;;;;6.92;68.20;99970.48;107480;1245;61451;-83
2023/03/08 19:16:47;;;;;;;25.40;14.30;;;;;;;6.82;67.94;99967.48;107517;1244;71915;-79
2023/03/08 19:19:16;;;;;;;25.60;14.30;;;;;;;6.71;66.61;99967.19;107511;1256;70209;-77
2023/03/08 19:21:47;;;;;;;25.70;13.10;;;;;;;6.57;67.97;99964.35;107369;1244;73411;-78
2023/03/08 19:24:18;;;;;;;24.80;13.30;;;;;;;6.43;67.95;99967.89;107400;1249;57945;-78
2023/03/08 19:26:51;;;;;;;30.10;15.20;;;;;;;6.31;68.50;99968.16;107544;1245;59013;-80
2023/03/08 19:29:23;;;;;;;28.90;15.00;;;;;;;6.22;69.06;99969.61;107281;1245;61422;-83
2023/03/08 19:31:58;;;;;;;25.00;13.30;;;;;;;6.12;68.96;99971.63;107474;1245;60863;-85
2023/03/08 19:34:35;;;;;;;24.50;14.30;;;;;;;6.05;68.53;99971.79;107431;1248;60004;-85
2023/03/08 19:37:05;;;;;;;20.40;12.50;;;;;;;5.97;68.22;99968.46;107688;1245;62526;-86
2023/03/08 19:39:36;;;;;;;24.90;13.40;;;;;;;5.89;69.68;99969.66;107695;1246;57901;-82
2023/03/08 19:42:12;;;;;;;24.00;13.70;;;;;;;5.82;70.79;99971.16;107612;1245;59210;-84
2023/03/08 19:44:47;;;;;;;22.20;12.90;;;;;;;5.74;70.06;99970.79;107281;1257;62746;-85
2023/03/08 19:47:18;;;;;;;21.70;13.10;;;;;;;5.69;71.23;99965.41;107233;1248;61590;-84
2023/03/08 19:49:48;;;;;;;27.70;13.20;;;;;;;5.65;72.32;99959.49;107443;1244;70406;-87
2023/03/08 19:52:17;;;;;;;23.20;14.80;;;;;;;5.59;72.60;99959.48;107387;1249;63339;-84
2023/03/08 19:54:47;;;;;;;23.40;14.40;;;;;;;5.56;73.05;99957.94;107434;1245;59059;-84
2023/03/08 19:57:16;;;;;;;23.30;14.00;;;;;;;5.54;73.58;99958.77;107471;1245;58242;-82
2023/03/08 19:59:45;;;;;;;29.10;15.60;;;;;;;5.49;73.97;99962.86;107563;1245;61332;-83
2023/03/08 20:02:14;;;;;;;30.20;16.50;;;;;;;5.46;73.67;99968.24;107649;1256;61644;-84
2023/03/08 20:04:44;;;;;;;29.80;16.80;;;;;;;5.43;71.17;99978.27;107688;1244;59219;-83
2023/03/08 20:07:13;;;;;;;30.50;17.00;;;;;;;5.39;71.54;99975.98;107489;1245;72032;-85
2023/03/08 20:09:42;;;;;;;24.50;14.90;;;;;;;5.33;72.01;99975.25;107597;1245;61631;-84
2023/03/08 20:12:11;;;;;;;29.20;16.10;;;;;;;5.27;73.11;99973.96;107254;1247;61368;-84
2023/03/08 20:14:39;;;;;;;31.40;18.10;;;;;;;5.22;71.39;99977.34;107514;1249;73143;-86
2023/03/08 20:17:08;;;;;;;33.80;19.50;;;;;;;5.13;72.15;99981.17;107624;1245;62097;-85
2023/03/08 20:19:37;;;;;;;32.40;18.10;;;;;;;5.04;70.49;99981.73;107536;1256;60391;-83
2023/03/08 20:22:06;;;;;;;28.20;17.50;;;;;;;4.93;69.49;99980.17;107410;1245;73010;-86
2023/03/08 20:24:35;;;;;;;26.60;16.30;;;;;;;4.79;72.93;99980.14;107450;1255;60588;-83
2023/03/08 20:27:04;;;;;;;27.40;16.60;;;;;;;4.68;74.67;99977.69;107516;1253;60177;-89
2023/03/08 20:29:33;;;;;;;26.20;15.50;;;;;;;4.60;75.61;99973.71;107409;1245;72699;-83
2023/03/08 20:32:02;;;;;;;25.10;16.10;;;;;;;4.55;76.20;99967.77;107397;1244;71991;-86
2023/03/08 20:34:31;;;;;;;26.60;15.40;;;;;;;4.52;76.84;99968.46;107434;1256;69998;-83
2023/03/08 20:37:00;;;;;;;21.90;14.80;;;;;;;4.50;76.38;99967.92;107244;1255;73366;-85
2023/03/08 20:39:29;;;;;;;26.40;15.60;;;;;;;4.47;73.44;99967.55;107325;1245;60967;-86
2023/03/08 20:41:57;;;;;;;21.90;14.20;;;;;;;4.42;72.52;99965.27;107320;1256;61645;-83
2023/03/08 20:44:26;;;;;;;20.70;14.10;;;;;;;4.40;74.99;99960.75;107347;1256;70990;-81
2023/03/08 20:46:55;;;;;;;24.50;15.20;;;;;;;4.38;76.04;99962.08;107352;1249;61511;-82
2023/03/08 20:49:25;;;;;;;20.00;13.50;;;;;;;4.34;74.94;99964.17;107549;1244;69595;-82
2023/03/08 20:51:54;;;;;;;27.90;18.20;;;;;;;4.30;73.34;99970.10;107538;1256;73636;-81
2023/03/08 20:54:22;;;;;;;29.80;19.00;;;;;;;4.25;73.55;99971.23;107585;1245;59813;-83
2023/03/08 20:56:52;;;;;;;32.30;18.70;;;;;;;4.20;73.17;99974.46;107329;1249;58967;-86
2023/03/08 20:59:22;;;;;;;26.40;17.60;;;;;;;4.13;73.22;99971.11;107597;1243;72637;-83
2023/03/08 21:01:53;;;;;;;24.90;17.60;;;;;;;4.09;78.37;99969.73;107556;1245;61428;-83
2023/03/08 21:04:22;;;;;;;27.60;17.70;;;;;;;4.09;80.17;99970.80;107646;1244;60133;-80
2023/03/08 21:06:52;;;;;;;23.40;15.00;;;;;;;4.09;79.14;99966.67;107499;1245;63251;-80
2023/03/08 21:09:21;;;;;;;22.30;15.20;;;;;;;4.06;78.49;99964.61;107464;1245;59490;-81
2023/03/08 21:11:51;;;;;;;26.10;14.60;;;;;;;4.02;78.31;99963.11;107108;1248;59031;-83
2023/03/08 21:14:20;;;;;;;19.10;13.60;;;;;;;4.00;78.25;99965.96;107043;1254;72775;-83
2023/03/08 21:16:50;;;;;;;27.10;14.10;;;;;;;3.99;79.42;99959.80;106997;1244;72835;-81
2023/03/08 21:19:19;;;;;;;22.50;15.10;;;;;;;4.01;80.73;99965.42;107276;1245;59719;-80
2023/03/08 21:21:50;;;;;;;28.70;15.30;;;;;;;4.00;80.93;99954.08;107043;1248;71169;-85
2023/03/08 21:24:21;;;;;;;23.70;15.40;;;;;;;3.99;81.00;99948.79;107243;1244;59504;-84
2023/03/08 21:26:50;;;;;;;22.10;14.80;;;;;;;3.96;80.87;99943.25;107281;1255;57482;-83
2023/03/08 21:29:20;;;;;;;23.70;14.40;;;;;;;3.97;80.95;99944.27;107437;1244;72645;-86
2023/03/08 21:31:52;;;;;;;42.80;23.90;;;;;;;3.96;80.80;99943.80;107202;1248;61269;-79
2023/03/08 21:34:21;;;;;;;29.70;15.80;;;;;;;3.99;78.69;99932.62;107321;1244;70395;-81
2023/03/08 21:36:50;;;;;;;26.10;15.70;;;;;;;4.02;81.20;99935.73;107290;1245;74190;-81
2023/03/08 21:39:19;;;;;;;23.70;14.90;;;;;;;4.04;79.34;99941.83;107340;1244;60368;-79
2023/03/08 21:41:49;;;;;;;19.30;13.00;;;;;;;4.10;78.24;99936.83;107380;1243;59998;-80
2023/03/08 21:44:19;;;;;;;19.70;13.10;;;;;;;4.16;79.62;99935.25;107397;1249;72074;-77
2023/03/08 21:46:50;;;;;;;20.30;13.70;;;;;;;4.19;80.22;99931.44;107390;1253;62879;-82
2023/03/08 21:49:24;;;;;;;18.00;13.00;;;;;;;4.23;80.04;99938.95;107419;1245;70257;-82
2023/03/08 21:51:55;;;;;;;20.00;12.60;;;;;;;4.30;80.36;99933.20;107334;1256;63853;-81
2023/03/08 21:54:27;;;;;;;22.10;13.40;;;;;;;4.36;80.86;99926.11;107613;1251;57408;-83
2023/03/08 21:56:57;;;;;;;22.70;13.00;;;;;;;4.40;80.66;99920.39;107487;1245;57355;-78
2023/03/08 21:59:27;;;;;;;23.60;14.70;;;;;;;4.42;80.11;99916.27;107486;1246;73376;-81
2023/03/08 22:01:57;;;;;;;21.50;13.30;;;;;;;4.44;79.75;99916.37;107347;1248;61337;-81
2023/03/08 22:04:27;;;;;;;20.20;11.90;;;;;;;4.44;80.17;99920.30;107517;1246;59860;-82
2023/03/08 22:06:56;;;;;;;20.10;12.90;;;;;;;4.47;80.01;99915.79;107649;1245;63260;-84
2023/03/08 22:09:27;;;;;;;18.90;11.50;;;;;;;4.50;80.44;99915.50;107597;1246;58203;-82
2023/03/08 22:11:57;;;;;;;15.70;11.00;;;;;;;4.55;80.85;99920.89;107444;1246;58735;-85
2023/03/08 22:14:27;;;;;;;22.10;11.20;;;;;;;4.60;79.73;99916.10;107653;1246;63562;-80
2023/03/08 22:16:56;;;;;;;17.80;11.20;;;;;;;4.67;80.09;99911.17;107527;1256;61634;-86
2023/03/08 22:19:25;;;;;;;18.90;10.50;;;;;;;4.72;79.62;99915.55;107588;1245;59155;-78
2023/03/08 22:21:54;;;;;;;19.50;10.80;;;;;;;4.78;79.13;99910.31;107625;1246;63274;-87
2023/03/08 22:24:23;;;;;;;18.00;11.10;;;;;;;4.85;79.87;99905.59;107611;1246;59664;-85
2023/03/08 22:26:52;;;;;;;19.00;11.60;;;;;;;4.96;79.04;99903.20;107637;1245;59101;-87
2023/03/08 22:29:21;;;;;;;18.40;11.30;;;;;;;5.16;78.24;99899.35;107575;1242;63263;-87
2023/03/08 22:31:50;;;;;;;20.70;11.20;;;;;;;5.31;77.45;99895.66;107427;1246;72163;-86
2023/03/08 22:34:19;;;;;;;20.20;11.70;;;;;;;5.39;77.08;99898.58;107667;1256;69461;-85
2023/03/08 22:36:47;;;;;;;23.00;11.10;;;;;;;5.48;76.41;99901.83;107806;1246;63926;-86
2023/03/08 22:39:16;;;;;;;20.10;12.10;;;;;;;5.58;75.86;99902.23;107398;1256;57527;-80
2023/03/08 22:41:45;;;;;;;22.60;12.90;;;;;;;5.62;75.20;99899.20;107165;1251;57547;-84
2023/03/08 22:44:15;;;;;;;20.50;12.40;;;;;;;5.64;75.16;99891.84;107503;1245;63972;-87
2023/03/08 22:46:43;;;;;;;20.80;11.30;;;;;;;5.66;76.46;99897.75;107410;1246;71552;-86
2023/03/08 22:49:12;;;;;;;17.70;11.10;;;;;;;5.68;75.85;99893.41;107247;1256;59240;-87
2023/03/08 22:51:44;;;;;;;16.90;10.30;;;;;;;5.77;75.13;99886.67;107150;1246;63629;-82
2023/03/08 22:54:20;;;;;;;16.00;10.00;;;;;;;5.90;74.96;99884.77;107179;1253;60298;-81
2023/03/08 22:56:49;;;;;;;17.90;10.40;;;;;;;6.11;73.73;99888.25;107131;1245;61049;-83
2023/03/08 22:59:17;;;;;;;19.40;11.60;;;;;;;6.34;72.58;99878.02;107186;1256;75163;-81
2023/03/08 23:01:46;;;;;;;19.30;10.80;;;;;;;6.53;71.40;99880.49;107474;1253;72570;-81
2023/03/08 23:04:15;;;;;;;17.20;10.90;;;;;;;6.73;70.45;99876.36;107359;1245;69566;-81
2023/03/08 23:06:46;;;;;;;18.20;11.20;;;;;;;6.80;70.50;99876.23;107431;1245;63092;-81
2023/03/08 23:09:15;;;;;;;13.50;9.30;;;;;;;6.88;70.14;99871.33;107423;1246;58998;-80
2023/03/08 23:11:46;;;;;;;19.70;11.00;;;;;;;6.94;69.98;99870.40;107794;1251;61012;-77
2023/03/08 23:14:14;;;;;;;22.40;12.00;;;;;;;6.98;69.43;99873.05;109030;1244;63940;-78
2023/03/08 23:16:46;;;;;;;23.10;13.00;;;;;;;7.02;69.65;99868.98;108844;1245;61457;-77
2023/03/08 23:19:21;;;;;;;24.10;13.40;;;;;;;7.02;69.64;99867.75;109271;1245;59048;-79
2023/03/08 23:21:50;;;;;;;22.20;12.60;;;;;;;7.00;69.20;99865.31;109118;1245;73225;-79
2023/03/08 23:24:19;;;;;;;23.10;12.50;;;;;;;6.98;69.42;99863.22;108844;1244;60006;-77
2023/03/08 23:26:48;;;;;;;23.30;13.10;;;;;;;7.00;69.46;99861.68;108368;1251;61049;-79
2023/03/08 23:29:17;;;;;;;22.90;13.00;;;;;;;7.02;69.00;99861.38;107553;1256;73052;-79
2023/03/08 23:31:45;;;;;;;22.80;12.70;;;;;;;7.03;68.78;99859.75;107698;1243;70933;-80
2023/03/08 23:34:14;;;;;;;19.10;12.30;;;;;;;7.05;68.64;99858.55;107575;1253;60442;-79
2023/03/08 23:36:43;;;;;;;19.20;11.30;;;;;;;7.08;68.76;99856.58;107237;1253;63233;-80
2023/03/08 23:39:12;;;;;;;22.90;13.00;;;;;;;7.11;68.41;99854.83;107512;1246;57563;-84
2023/03/08 23:41:41;;;;;;;18.90;12.30;;;;;;;7.14;68.34;99852.17;107266;1245;59120;-78
2023/03/08 23:44:11;;;;;;;19.10;12.30;;;;;;;7.16;68.21;99844.75;107395;1253;62940;-78
2023/03/08 23:46:44;;;;;;;19.10;12.10;;;;;;;7.20;67.79;99841.41;107255;1253;61743;-79
2023/03/08 23:49:15;;;;;;;17.50;10.50;;;;;;;7.22;67.62;99834.65;107429;1251;70535;-81
2023/03/08 23:51:44;;;;;;;19.40;11.30;;;;;;;7.25;67.57;99833.59;107456;1256;63903;-78
2023/03/08 23:54:13;;;;;;;20.30;11.60;;;;;;;7.26;67.28;99830.38;107169;1253;58745;-79
2023/03/08 23:56:43;;;;;;;17.30;11.70;;;;;;;7.28;67.02;99825.52;107189;1245;59072;-80
2023/03/08 23:59:18;;;;;;;23.10;11.90;;;;;;;7.33;66.75;99822.94;107202;1248;72657;-79
